Mc Kellar Sipes Regional Airport
KMKL : rendu visible

Aérodrome :











RETROUVEZ-NOUS SUR...

 
LOGIN :

S'inscrire | Disclaimer

   EN    FR    IT 

 









Légende :    VFR   VFR Marginal   IFR   IFR Intensif   IFR Très Intensif
Visi : 
Plafond : 
>= 8 km
>= 3000ft
5 à 8 km
1000 à 3000 ft
1500m à 5 km
500 à 1000 ft
800 à 1500m
200 à 500 ft
< 800m
< 200 ft
Symboles :   Orages  Brouillard  Fortes neiges  Fortes précipitations  Vent > 20 kt






- Altitude de l'aérodrome : 434 ft
- Code IATA : MKL


KMKL - Mc Kellar Sipes Regional

DERNIER METAR :
  • 231953Z 20004KT 10SM OVC065 11/03 A3015 RMK AO2 SLP209 T01110033

METARs EXPIRÉS :
  • 231853Z 20006KT 10SM OVC060 10/03 A3016 RMK AO2 RAB1756E29 SLP216 P0000 T01000033
  • 231753Z 20009KT 10SM FEW070 OVC090 11/03 A3019 RMK AO2 SLP225 60000 T01060028 10106 20050 58008

TAF KMKL
Valide du 23 à 18h jusqu'au 24 à 18h UTC


231729Z 2318/2418 20010KT P6SM VCSH OVC070
FM232200 19007KT P6SM -SHRA FEW030 OVC050
FM240300 17004KT 5SM -SHRA BR SCT020 OVC035
FM240600 16008KT 4SM -RA BR OVC015
FM240900 16011KT 4SM -RA BR OVC007 WS020/20035KT
FM241600 17013G20KT 6SM -SHRA BR OVC007



MET'MAP, la Météo Aéronautique d'un coup d'oeil ! - Copyright ORBIFLY Décembre 2007 - Disclaimer

ORBIFLY MET'MAP TEAM :

Programmation & Développement : Alexandra Zaïnal
Sur une idée originale de : Baudouin d'Aumeries
Assistance à la programmation : Marc-Olivier Méhu
Soutien technique & logistique : Manuel Goepfert

Contact : metmap@orbifly.com




SOURCES & CREDITS :

   NOAA       Earth
Advisory